createdAt,value
2022-10-23T00:00:03.816Z,87
2022-10-23T00:01:00.245Z,87
2022-10-23T00:02:00.414Z,87
2022-10-23T00:03:00.323Z,87
2022-10-23T00:04:00.442Z,87
2022-10-23T00:05:00.644Z,87
2022-10-23T00:06:00.342Z,87
2022-10-23T00:07:00.431Z,87
2022-10-23T00:08:00.331Z,87
2022-10-23T00:09:00.293Z,87
2022-10-23T00:10:00.900Z,87
2022-10-23T00:11:00.288Z,87
2022-10-23T00:12:00.377Z,87
2022-10-23T00:13:00.296Z,88
2022-10-23T00:14:00.362Z,88
2022-10-23T00:15:00.705Z,88
2022-10-23T00:16:00.660Z,88
2022-10-23T00:17:00.335Z,88
2022-10-23T00:18:00.396Z,88
2022-10-23T00:19:00.344Z,88
2022-10-23T00:20:03.629Z,88
2022-10-23T00:21:00.361Z,88
2022-10-23T00:22:00.434Z,88
2022-10-23T00:23:00.372Z,88
2022-10-23T00:24:00.505Z,88
2022-10-23T00:25:03.218Z,88
2022-10-23T00:26:00.445Z,87
2022-10-23T00:27:00.406Z,87
2022-10-23T00:28:00.481Z,88
2022-10-23T00:29:00.395Z,88
2022-10-23T00:30:00.978Z,88
2022-10-23T00:31:00.414Z,88
2022-10-23T00:32:00.474Z,88
2022-10-23T00:33:00.437Z,88
2022-10-23T00:34:00.516Z,88
2022-10-23T00:35:03.371Z,88
2022-10-23T00:36:00.512Z,88
2022-10-23T00:37:00.444Z,88
2022-10-23T00:38:00.513Z,88
2022-10-23T00:39:00.475Z,88
2022-10-23T00:40:03.882Z,88
2022-10-23T00:41:00.483Z,88
2022-10-23T00:42:00.539Z,88
2022-10-23T00:43:00.483Z,88
2022-10-23T00:44:00.552Z,88
2022-10-23T00:45:04.077Z,88
2022-10-23T00:46:00.596Z,88
2022-10-23T00:47:00.525Z,88
2022-10-23T00:48:00.601Z,88
2022-10-23T00:49:00.593Z,88
2022-10-23T00:50:01.129Z,88
2022-10-23T00:51:00.565Z,89
2022-10-23T00:52:00.647Z,89
2022-10-23T00:53:00.565Z,89
2022-10-23T00:54:12.976Z,89
2022-10-23T00:55:03.638Z,89
2022-10-23T00:56:00.640Z,89
2022-10-23T00:57:02.703Z,89
2022-10-23T00:58:00.716Z,89
2022-10-23T00:59:00.602Z,89
2022-10-23T01:00:04.953Z,89
2022-10-23T01:01:00.632Z,89
2022-10-23T01:02:00.846Z,89
2022-10-23T01:03:01.725Z,89
2022-10-23T01:04:00.698Z,89
2022-10-23T01:05:03.497Z,89
2022-10-23T01:06:00.721Z,89
2022-10-23T01:07:00.651Z,89
2022-10-23T01:08:00.720Z,89
2022-10-23T01:09:00.705Z,89
2022-10-23T01:10:03.869Z,89
2022-10-23T01:11:00.671Z,89
2022-10-23T01:12:00.769Z,89
2022-10-23T01:13:00.732Z,89
2022-10-23T01:14:00.793Z,89
2022-10-23T01:15:03.616Z,89
2022-10-23T01:16:00.773Z,89
2022-10-23T01:17:00.735Z,89
2022-10-23T01:18:00.799Z,89
2022-10-23T01:19:00.735Z,89
2022-10-23T01:20:04.043Z,89
2022-10-23T01:21:00.790Z,89
2022-10-23T01:22:00.822Z,89
2022-10-23T01:23:00.761Z,89
2022-10-23T01:24:00.848Z,89
2022-10-23T01:25:03.510Z,89
2022-10-23T01:26:00.841Z,89
2022-10-23T01:27:00.826Z,89
2022-10-23T01:28:00.853Z,89
2022-10-23T01:29:00.843Z,89
2022-10-23T01:30:04.118Z,89
2022-10-23T01:31:00.826Z,89
2022-10-23T01:32:00.893Z,89
2022-10-23T01:33:00.854Z,89
2022-10-23T01:34:00.902Z,89
2022-10-23T01:35:01.203Z,89
2022-10-23T01:36:00.947Z,89
2022-10-23T01:37:00.874Z,89
2022-10-23T01:38:00.930Z,89
2022-10-23T01:39:01.007Z,89
2022-10-23T01:40:05.701Z,89
2022-10-23T01:41:00.916Z,89
2022-10-23T01:42:01.023Z,89
2022-10-23T01:43:00.927Z,89
2022-10-23T01:44:00.994Z,89
2022-10-23T01:45:01.435Z,89
2022-10-23T01:46:01.008Z,89
2022-10-23T01:47:00.964Z,89
2022-10-23T01:48:01.036Z,89
2022-10-23T01:49:00.975Z,89
2022-10-23T01:50:04.156Z,89
2022-10-23T01:51:01.009Z,89
2022-10-23T01:52:01.059Z,89
2022-10-23T01:53:01.009Z,89
2022-10-23T01:54:01.078Z,89
2022-10-23T01:55:03.789Z,89
2022-10-23T01:56:01.090Z,89
2022-10-23T01:57:01.029Z,89
2022-10-23T01:58:01.093Z,89
2022-10-23T01:59:01.051Z,89
2022-10-23T02:00:04.349Z,90
2022-10-23T02:01:01.247Z,90
2022-10-23T02:02:01.330Z,90
2022-10-23T02:03:01.086Z,90
2022-10-23T02:04:01.140Z,90
2022-10-23T02:05:04.097Z,90
2022-10-23T02:06:01.183Z,90
2022-10-23T02:07:01.108Z,90
2022-10-23T02:08:01.195Z,90
2022-10-23T02:09:01.130Z,90
2022-10-23T02:10:04.386Z,90
2022-10-23T02:11:01.144Z,90
2022-10-23T02:12:01.231Z,90
2022-10-23T02:13:01.156Z,90
2022-10-23T02:14:01.226Z,90
2022-10-23T02:15:01.504Z,90
2022-10-23T02:16:01.255Z,90
2022-10-23T02:17:00.177Z,90
2022-10-23T02:18:00.235Z,90
2022-10-23T02:19:00.182Z,90
2022-10-23T02:20:03.639Z,90
2022-10-23T02:21:00.197Z,90
2022-10-23T02:22:00.253Z,90
2022-10-23T02:23:00.197Z,90
2022-10-23T02:24:00.285Z,90
2022-10-23T02:25:03.092Z,90
2022-10-23T02:26:00.296Z,90
2022-10-23T02:27:00.242Z,90
2022-10-23T02:28:00.309Z,90
2022-10-23T02:29:00.283Z,90
2022-10-23T02:30:00.831Z,90
2022-10-23T02:31:00.257Z,90
2022-10-23T02:32:00.394Z,90
2022-10-23T02:33:00.275Z,90
2022-10-23T02:34:00.349Z,90
2022-10-23T02:35:04.856Z,90
2022-10-23T02:36:00.392Z,90
2022-10-23T02:37:00.304Z,90
2022-10-23T02:38:00.412Z,90
2022-10-23T02:39:00.323Z,90
2022-10-23T02:40:03.396Z,90
2022-10-23T02:41:00.338Z,90
2022-10-23T02:42:00.403Z,90
2022-10-23T02:43:00.353Z,90
2022-10-23T02:44:00.573Z,90
2022-10-23T02:45:03.465Z,90
2022-10-23T02:46:00.439Z,90
2022-10-23T02:47:00.377Z,90
2022-10-23T02:48:00.609Z,90
2022-10-23T02:49:00.392Z,90
2022-10-23T02:50:01.082Z,90
2022-10-23T02:51:00.424Z,90
2022-10-23T02:52:00.492Z,90
2022-10-23T02:53:00.426Z,90
2022-10-23T02:54:00.515Z,90
2022-10-23T02:55:03.278Z,90
2022-10-23T02:56:00.492Z,90
2022-10-23T02:57:00.453Z,90
2022-10-23T02:58:00.508Z,90
2022-10-23T02:59:00.465Z,90
2022-10-23T03:00:04.013Z,89
2022-10-23T03:01:00.596Z,89
2022-10-23T03:02:00.708Z,89
2022-10-23T03:03:00.540Z,89
2022-10-23T03:04:00.617Z,89
2022-10-23T03:05:03.479Z,89
2022-10-23T03:06:00.628Z,89
2022-10-23T03:07:00.570Z,89
2022-10-23T03:08:00.627Z,89
2022-10-23T03:09:00.565Z,89
2022-10-23T03:10:03.841Z,89
2022-10-23T03:11:00.573Z,89
2022-10-23T03:12:00.649Z,89
2022-10-23T03:13:00.621Z,89
2022-10-23T03:14:00.668Z,89
2022-10-23T03:15:03.846Z,89
2022-10-23T03:16:00.662Z,89
2022-10-23T03:17:00.591Z,89
2022-10-23T03:18:00.698Z,89
2022-10-23T03:19:00.870Z,89
2022-10-23T03:20:05.096Z,89
2022-10-23T03:21:00.643Z,89
2022-10-23T03:22:00.704Z,89
2022-10-23T03:23:00.653Z,89
2022-10-23T03:24:00.729Z,89
2022-10-23T03:25:03.484Z,88
2022-10-23T03:26:00.712Z,88
2022-10-23T03:27:00.681Z,88
2022-10-23T03:28:00.748Z,88
2022-10-23T03:29:00.692Z,88
2022-10-23T03:30:05.702Z,88
2022-10-23T03:31:00.715Z,88
2022-10-23T03:32:00.785Z,88
2022-10-23T03:33:00.737Z,89
2022-10-23T03:34:03.060Z,89
2022-10-23T03:35:03.679Z,89
2022-10-23T03:36:00.889Z,89
2022-10-23T03:37:00.755Z,89
2022-10-23T03:38:00.835Z,89
2022-10-23T03:39:00.793Z,89
2022-10-23T03:40:05.709Z,89
2022-10-23T03:41:00.804Z,89
2022-10-23T03:42:00.908Z,89
2022-10-23T03:43:00.805Z,89
2022-10-23T03:44:00.925Z,89
2022-10-23T03:45:01.234Z,89
2022-10-23T03:46:00.895Z,89
2022-10-23T03:47:00.839Z,89
2022-10-23T03:48:00.932Z,89
2022-10-23T03:49:00.832Z,89
2022-10-23T03:50:04.227Z,89
2022-10-23T03:51:00.858Z,89
2022-10-23T03:52:01.055Z,89
2022-10-23T03:53:00.881Z,89
2022-10-23T03:54:00.971Z,89
2022-10-23T03:55:01.225Z,89
2022-10-23T03:56:00.954Z,89
2022-10-23T03:57:00.978Z,89
2022-10-23T03:58:00.976Z,89
2022-10-23T03:59:00.894Z,89
2022-10-23T04:00:04.240Z,89
2022-10-23T04:01:00.966Z,88
2022-10-23T04:02:01.176Z,88
2022-10-23T04:03:00.951Z,88
2022-10-23T04:04:01.075Z,88
2022-10-23T04:05:03.802Z,88
2022-10-23T04:06:01.089Z,88
2022-10-23T04:07:00.988Z,88
2022-10-23T04:08:01.078Z,88
2022-10-23T04:09:01.015Z,88
2022-10-23T04:10:04.417Z,88
2022-10-23T04:11:01.017Z,88
2022-10-23T04:12:01.136Z,88
2022-10-23T04:13:01.028Z,88
2022-10-23T04:14:01.097Z,88
2022-10-23T04:15:03.802Z,88
2022-10-23T04:16:01.127Z,87
2022-10-23T04:17:01.063Z,87
2022-10-23T04:18:02.609Z,87
2022-10-23T04:19:01.059Z,87
2022-10-23T04:20:04.462Z,87
2022-10-23T04:21:01.092Z,86
2022-10-23T04:22:01.174Z,86
2022-10-23T04:23:01.087Z,86
2022-10-23T04:24:01.234Z,86
2022-10-23T04:25:04.603Z,86
2022-10-23T04:26:01.223Z,86
2022-10-23T04:27:01.132Z,86
2022-10-23T04:28:01.223Z,86
2022-10-23T04:29:01.149Z,86
2022-10-23T04:30:04.387Z,86
2022-10-23T04:31:01.168Z,85
2022-10-23T04:32:00.260Z,85
2022-10-23T04:33:00.199Z,85
2022-10-23T04:34:00.302Z,86
2022-10-23T04:35:03.304Z,86
2022-10-23T04:36:00.298Z,86
2022-10-23T04:37:00.209Z,85
2022-10-23T04:38:00.285Z,85
2022-10-23T04:39:00.238Z,86
2022-10-23T04:40:03.588Z,86
2022-10-23T04:41:00.233Z,86
2022-10-23T04:42:00.372Z,86
2022-10-23T04:43:00.259Z,86
2022-10-23T04:44:00.326Z,86
2022-10-23T04:45:00.648Z,86
2022-10-23T04:46:00.360Z,86
2022-10-23T04:47:00.280Z,86
2022-10-23T04:48:00.415Z,86
2022-10-23T04:49:00.293Z,85
2022-10-23T04:50:03.692Z,85
2022-10-23T04:51:00.323Z,85
2022-10-23T04:52:00.400Z,85
2022-10-23T04:53:00.319Z,85
2022-10-23T04:54:00.525Z,85
2022-10-23T04:55:03.333Z,85
2022-10-23T04:56:00.455Z,85
2022-10-23T04:57:00.357Z,85
2022-10-23T04:58:00.412Z,85
2022-10-23T04:59:00.404Z,85
2022-10-23T05:00:04.932Z,85
2022-10-23T05:01:00.581Z,85
2022-10-23T05:02:00.567Z,85
2022-10-23T05:03:00.427Z,85
2022-10-23T05:04:00.472Z,85
2022-10-23T05:05:03.221Z,85
2022-10-23T05:06:00.550Z,85
2022-10-23T05:07:00.443Z,85
2022-10-23T05:08:00.521Z,85
2022-10-23T05:09:00.469Z,85
2022-10-23T05:10:03.600Z,85
2022-10-23T05:11:00.469Z,85
2022-10-23T05:12:00.582Z,85
2022-10-23T05:13:00.477Z,85
2022-10-23T05:14:00.564Z,85
2022-10-23T05:15:03.340Z,85
2022-10-23T05:16:00.558Z,85
2022-10-23T05:17:00.508Z,85
2022-10-23T05:18:00.623Z,85
2022-10-23T05:19:00.539Z,85
2022-10-23T05:20:04.477Z,85
2022-10-23T05:21:00.554Z,85
2022-10-23T05:22:00.639Z,85
2022-10-23T05:23:00.567Z,85
2022-10-23T05:25:03.515Z,85
2022-10-23T05:26:00.650Z,85
2022-10-23T05:27:00.591Z,85
2022-10-23T05:28:00.818Z,85
2022-10-23T05:29:00.596Z,85
2022-10-23T05:30:03.933Z,85
2022-10-23T05:31:00.697Z,85
2022-10-23T05:32:00.793Z,85
2022-10-23T05:33:00.721Z,85
2022-10-23T05:34:00.784Z,85
2022-10-23T05:35:03.866Z,85
2022-10-23T05:36:00.880Z,85
2022-10-23T05:37:00.754Z,85
2022-10-23T05:38:00.829Z,85
2022-10-23T05:39:00.774Z,85
2022-10-23T05:40:04.199Z,85
2022-10-23T05:41:00.773Z,85
2022-10-23T05:42:00.910Z,85
2022-10-23T05:43:00.770Z,85
2022-10-23T05:44:00.834Z,85
2022-10-23T05:45:03.847Z,85
2022-10-23T05:46:00.874Z,85
2022-10-23T05:47:00.819Z,85
2022-10-23T05:48:11.020Z,85
2022-10-23T05:49:00.834Z,85
2022-10-23T05:50:04.319Z,85
2022-10-23T05:51:00.783Z,85
2022-10-23T05:52:00.943Z,85
2022-10-23T05:53:00.876Z,85
2022-10-23T05:54:01.000Z,85
2022-10-23T05:55:03.923Z,85
2022-10-23T05:56:00.955Z,85
2022-10-23T05:57:00.891Z,85
2022-10-23T05:58:00.959Z,85
2022-10-23T05:59:00.909Z,85
2022-10-23T06:00:04.754Z,85
2022-10-23T06:01:00.946Z,85
2022-10-23T06:02:01.082Z,85
2022-10-23T06:03:00.922Z,85
2022-10-23T06:04:00.984Z,85
2022-10-23T06:05:04.186Z,85
2022-10-23T06:06:01.042Z,85
2022-10-23T06:07:00.855Z,85
2022-10-23T06:08:02.571Z,85
2022-10-23T06:09:00.880Z,85
2022-10-23T06:10:04.413Z,86
2022-10-23T06:11:00.891Z,86
2022-10-23T06:12:00.997Z,86
2022-10-23T06:13:00.904Z,86
2022-10-23T06:14:01.251Z,86
2022-10-23T06:15:05.771Z,86
2022-10-23T06:16:01.014Z,86
2022-10-23T06:17:00.941Z,86
2022-10-23T06:18:01.046Z,85
2022-10-23T06:19:00.953Z,85
2022-10-23T06:20:05.808Z,85
2022-10-23T06:21:00.971Z,85
2022-10-23T06:22:02.605Z,85
2022-10-23T06:23:00.959Z,85
2022-10-23T06:24:01.086Z,85
2022-10-23T06:25:05.683Z,85
2022-10-23T06:26:01.057Z,85
2022-10-23T06:27:01.000Z,85
2022-10-23T06:28:01.068Z,85
2022-10-23T06:29:01.010Z,85
2022-10-23T06:30:05.831Z,85
2022-10-23T06:31:01.028Z,85
2022-10-23T06:32:01.090Z,85
2022-10-23T06:33:03.324Z,85
2022-10-23T06:34:01.113Z,85
2022-10-23T06:35:04.296Z,85
2022-10-23T06:36:01.165Z,85
2022-10-23T06:37:01.048Z,85
2022-10-23T06:38:01.149Z,85
2022-10-23T06:39:01.079Z,85
2022-10-23T06:40:04.336Z,85
2022-10-23T06:41:01.079Z,85
2022-10-23T06:42:01.183Z,85
2022-10-23T06:43:01.086Z,84
2022-10-23T06:44:01.155Z,84
2022-10-23T06:45:06.421Z,84
2022-10-23T06:46:01.211Z,84
2022-10-23T06:47:01.107Z,84
2022-10-23T06:48:01.228Z,84
2022-10-23T06:49:01.121Z,84
2022-10-23T06:50:04.338Z,84
2022-10-23T06:51:01.153Z,84
2022-10-23T06:52:01.213Z,83
2022-10-23T06:53:01.150Z,83
2022-10-23T06:54:01.261Z,83
2022-10-23T06:55:04.117Z,83
2022-10-23T06:56:00.255Z,83
2022-10-23T06:57:00.183Z,83
2022-10-23T06:58:00.269Z,83
2022-10-23T06:59:00.184Z,83
2022-10-23T07:00:04.677Z,83
2022-10-23T07:01:00.292Z,83
2022-10-23T07:02:00.436Z,83
2022-10-23T07:03:00.243Z,83
2022-10-23T07:04:00.304Z,83
2022-10-23T07:05:01.212Z,83
2022-10-23T07:06:00.346Z,83
2022-10-23T07:07:00.261Z,83
2022-10-23T07:08:00.344Z,83
2022-10-23T07:09:00.285Z,83
2022-10-23T07:10:05.910Z,83
2022-10-23T07:11:00.291Z,82
2022-10-23T07:12:00.388Z,82
2022-10-23T07:13:00.296Z,82
2022-10-23T07:14:00.384Z,82
2022-10-23T07:15:03.341Z,81
2022-10-23T07:16:00.423Z,81
2022-10-23T07:17:00.332Z,81
2022-10-23T07:18:00.457Z,81
2022-10-23T07:19:00.366Z,81
2022-10-23T07:20:01.134Z,81
2022-10-23T07:21:00.391Z,81
2022-10-23T07:22:00.467Z,81
2022-10-23T07:23:00.396Z,81
2022-10-23T07:24:00.496Z,81
2022-10-23T07:25:03.407Z,81
2022-10-23T07:26:00.475Z,81
2022-10-23T07:27:00.428Z,81
2022-10-23T07:28:00.522Z,80
2022-10-23T07:29:00.437Z,80
2022-10-23T07:30:04.773Z,80
2022-10-23T07:31:00.449Z,80
2022-10-23T07:32:00.534Z,80
2022-10-23T07:33:00.462Z,80
2022-10-23T07:34:00.586Z,80
2022-10-23T07:35:03.429Z,80
2022-10-23T07:36:00.556Z,80
2022-10-23T07:37:00.494Z,80
2022-10-23T07:38:00.556Z,79
2022-10-23T07:39:00.520Z,79
2022-10-23T07:40:03.828Z,79
2022-10-23T07:41:00.520Z,79
2022-10-23T07:42:00.600Z,79
2022-10-23T07:43:00.541Z,80
2022-10-23T07:44:00.607Z,80
2022-10-23T07:45:03.499Z,80
2022-10-23T07:46:00.653Z,80
2022-10-23T07:47:00.561Z,80
2022-10-23T07:48:00.634Z,80
2022-10-23T07:49:00.580Z,80
2022-10-23T07:50:03.823Z,80
2022-10-23T07:51:00.590Z,80
2022-10-23T07:52:00.763Z,80
2022-10-23T07:53:00.601Z,80
2022-10-23T07:54:00.687Z,80
2022-10-23T07:55:03.630Z,80
2022-10-23T07:56:00.670Z,79
2022-10-23T07:57:00.633Z,79
2022-10-23T07:58:00.723Z,79
2022-10-23T07:59:00.645Z,79
2022-10-23T08:00:03.882Z,79
2022-10-23T08:01:00.765Z,79
2022-10-23T08:02:00.855Z,79
2022-10-23T08:03:00.683Z,79
2022-10-23T08:04:00.777Z,79
2022-10-23T08:05:12.897Z,79
2022-10-23T08:06:00.789Z,79
2022-10-23T08:07:00.716Z,79
2022-10-23T08:08:00.778Z,79
2022-10-23T08:09:03.802Z,79
2022-10-23T08:10:06.236Z,79
2022-10-23T08:11:00.745Z,78
2022-10-23T08:12:00.823Z,78
2022-10-23T08:13:00.755Z,78
2022-10-23T08:14:00.831Z,79
2022-10-23T08:15:05.085Z,79
2022-10-23T08:16:00.832Z,78
2022-10-23T08:18:00.832Z,78
2022-10-23T08:19:00.787Z,78
2022-10-23T08:20:03.873Z,78
2022-10-23T08:21:00.839Z,78
2022-10-23T08:22:00.904Z,78
2022-10-23T08:23:00.818Z,78
2022-10-23T08:24:00.903Z,77
2022-10-23T08:25:03.628Z,77
2022-10-23T08:26:00.910Z,77
2022-10-23T08:27:00.853Z,77
2022-10-23T08:28:04.188Z,77
2022-10-23T08:29:00.845Z,77
2022-10-23T08:30:04.426Z,77
2022-10-23T08:31:00.872Z,76
2022-10-23T08:32:00.951Z,76
2022-10-23T08:33:00.905Z,75
2022-10-23T08:34:01.003Z,75
2022-10-23T08:35:03.931Z,75
2022-10-23T08:36:01.686Z,75
2022-10-23T08:37:00.910Z,75
2022-10-23T08:38:01.570Z,75
2022-10-23T08:39:00.935Z,76
2022-10-23T08:40:04.247Z,76
2022-10-23T08:41:00.935Z,76
2022-10-23T08:42:01.097Z,76
2022-10-23T08:43:00.956Z,76
2022-10-23T08:44:01.060Z,76
2022-10-23T08:45:05.704Z,76
2022-10-23T08:46:04.182Z,75
2022-10-23T08:47:00.977Z,75
2022-10-23T08:48:01.788Z,75
2022-10-23T08:49:00.998Z,75
2022-10-23T08:50:04.300Z,75
2022-10-23T08:51:01.043Z,75
2022-10-23T08:52:01.598Z,75
2022-10-23T08:53:01.015Z,75
2022-10-23T08:54:01.099Z,75
2022-10-23T08:55:04.075Z,75
2022-10-23T08:56:01.100Z,75
2022-10-23T08:57:01.088Z,74
2022-10-23T08:58:01.131Z,74
2022-10-23T08:59:01.069Z,74
2022-10-23T09:00:02.940Z,74
2022-10-23T09:01:01.259Z,74
2022-10-23T09:02:01.334Z,74
2022-10-23T09:03:01.114Z,74
2022-10-23T09:04:02.630Z,74
2022-10-23T09:05:04.237Z,74
2022-10-23T09:06:01.210Z,73
2022-10-23T09:07:01.158Z,73
2022-10-23T09:08:01.324Z,73
2022-10-23T09:09:01.155Z,73
2022-10-23T09:10:05.730Z,73
2022-10-23T09:11:00.163Z,73
2022-10-23T09:12:00.240Z,73
2022-10-23T09:13:00.175Z,73
2022-10-23T09:14:00.271Z,73
2022-10-23T09:15:03.146Z,73
2022-10-23T09:16:00.270Z,73
2022-10-23T09:17:00.195Z,73
2022-10-23T09:18:00.283Z,73
2022-10-23T09:19:00.202Z,73
2022-10-23T09:20:03.725Z,73
2022-10-23T09:21:00.229Z,73
2022-10-23T09:22:00.312Z,72
2022-10-23T09:23:00.230Z,72
2022-10-23T09:24:00.335Z,72
2022-10-23T09:25:03.279Z,71
2022-10-23T09:26:00.443Z,71
2022-10-23T09:27:00.372Z,70
2022-10-23T09:28:02.896Z,70
2022-10-23T09:29:00.268Z,70
2022-10-23T09:30:01.140Z,70
2022-10-23T09:31:00.284Z,70
2022-10-23T09:32:00.400Z,70
2022-10-23T09:33:00.311Z,70
2022-10-23T09:34:00.375Z,70
2022-10-23T09:35:03.450Z,70
2022-10-23T09:36:00.398Z,70
2022-10-23T09:37:00.317Z,69
2022-10-23T09:38:00.423Z,69
2022-10-23T09:39:00.362Z,69
2022-10-23T09:40:05.129Z,69
2022-10-23T09:41:00.354Z,69
2022-10-23T09:42:00.433Z,69
2022-10-23T09:43:00.370Z,69
2022-10-23T09:44:00.467Z,69
2022-10-23T09:45:03.236Z,69
2022-10-23T09:46:00.458Z,69
2022-10-23T09:47:00.372Z,69
2022-10-23T09:48:00.464Z,69
2022-10-23T09:49:03.498Z,69
2022-10-23T09:50:03.884Z,69
2022-10-23T09:51:00.416Z,69
2022-10-23T09:52:00.497Z,70
2022-10-23T09:53:00.411Z,70
2022-10-23T09:54:00.496Z,70
2022-10-23T09:55:04.021Z,69
2022-10-23T09:56:00.559Z,69
2022-10-23T09:57:00.462Z,70
2022-10-23T09:58:00.543Z,70
2022-10-23T09:59:00.481Z,70
2022-10-23T10:00:03.982Z,70
2022-10-23T10:01:00.575Z,70
2022-10-23T10:02:00.693Z,70
2022-10-23T10:03:00.509Z,70
2022-10-23T10:04:00.591Z,70
2022-10-23T10:05:01.132Z,70
2022-10-23T10:06:00.610Z,70
2022-10-23T10:07:00.521Z,70
2022-10-23T10:08:00.623Z,70
2022-10-23T10:09:00.545Z,70
2022-10-23T10:10:05.663Z,70
2022-10-23T10:11:00.553Z,70
2022-10-23T10:12:00.937Z,69
2022-10-23T10:13:00.561Z,69
2022-10-23T10:14:00.665Z,69
2022-10-23T10:15:04.745Z,69
2022-10-23T10:16:00.659Z,69
2022-10-23T10:17:00.593Z,69
2022-10-23T10:18:00.672Z,69
2022-10-23T10:19:00.636Z,69
2022-10-23T10:20:06.823Z,69
2022-10-23T10:21:00.627Z,69
2022-10-23T10:22:00.700Z,69
2022-10-23T10:23:00.635Z,70
2022-10-23T10:24:00.716Z,70
2022-10-23T10:25:03.483Z,69
2022-10-23T10:26:00.746Z,69
2022-10-23T10:27:00.679Z,69
2022-10-23T10:28:00.759Z,69
2022-10-23T10:29:00.675Z,69
2022-10-23T10:30:04.061Z,69
2022-10-23T10:31:00.695Z,70
2022-10-23T10:32:00.781Z,70
2022-10-23T10:33:00.710Z,70
2022-10-23T10:34:00.782Z,70
2022-10-23T10:35:04.879Z,70
2022-10-23T10:36:00.782Z,70
2022-10-23T10:37:00.724Z,70
2022-10-23T10:38:00.830Z,70
2022-10-23T10:39:00.743Z,70
2022-10-23T10:40:04.067Z,70
2022-10-23T10:41:00.743Z,70
2022-10-23T10:42:00.813Z,70
2022-10-23T10:43:00.764Z,70
2022-10-23T10:44:00.871Z,70
2022-10-23T10:45:03.707Z,70
2022-10-23T10:46:00.844Z,70
2022-10-23T10:47:00.780Z,70
2022-10-23T10:48:00.879Z,71
2022-10-23T10:49:00.794Z,71
2022-10-23T10:50:07.636Z,71
2022-10-23T10:51:00.844Z,71
2022-10-23T10:52:00.895Z,71
2022-10-23T10:53:00.823Z,70
2022-10-23T10:54:00.909Z,70
2022-10-23T10:55:03.839Z,70
2022-10-23T10:56:00.989Z,71
2022-10-23T10:57:00.876Z,71
2022-10-23T10:58:00.947Z,71
2022-10-23T10:59:00.878Z,71
2022-10-23T11:00:04.244Z,71
2022-10-23T11:01:01.048Z,70
2022-10-23T11:02:01.102Z,70
2022-10-23T11:03:00.942Z,70
2022-10-23T11:04:02.628Z,70
2022-10-23T11:05:04.194Z,70
2022-10-23T11:06:01.017Z,70
2022-10-23T11:07:00.943Z,70
2022-10-23T11:08:01.050Z,70
2022-10-23T11:09:19.414Z,70
2022-10-23T11:10:04.081Z,70
2022-10-23T11:11:00.970Z,70
2022-10-23T11:12:02.661Z,70
2022-10-23T11:13:00.974Z,70
2022-10-23T11:14:01.160Z,70
2022-10-23T11:15:04.197Z,70
2022-10-23T11:16:01.067Z,70
2022-10-23T11:17:00.989Z,70
2022-10-23T11:18:02.696Z,70
2022-10-23T11:19:01.012Z,70
2022-10-23T11:20:04.320Z,70
2022-10-23T11:21:01.039Z,70
2022-10-23T11:22:01.088Z,70
2022-10-23T11:23:01.028Z,70
2022-10-23T11:24:01.182Z,71
2022-10-23T11:25:04.114Z,71
2022-10-23T11:26:02.764Z,71
2022-10-23T11:27:01.075Z,71
2022-10-23T11:28:03.714Z,71
2022-10-23T11:29:01.088Z,72
2022-10-23T11:30:05.696Z,72
2022-10-23T11:31:01.102Z,72
2022-10-23T11:32:01.189Z,72
2022-10-23T11:33:01.127Z,73
2022-10-23T11:34:01.186Z,73
2022-10-23T11:35:04.110Z,73
2022-10-23T11:36:01.203Z,74
2022-10-23T11:37:01.138Z,74
2022-10-23T11:38:01.222Z,74
2022-10-23T11:39:01.155Z,74
2022-10-23T11:40:04.570Z,74
2022-10-23T11:41:01.147Z,74
2022-10-23T11:42:01.228Z,74
2022-10-23T11:43:00.160Z,74
2022-10-23T11:44:00.241Z,74
2022-10-23T11:45:01.159Z,74
2022-10-23T11:46:00.265Z,74
2022-10-23T11:47:03.845Z,74
2022-10-23T11:48:00.274Z,74
2022-10-23T11:49:00.269Z,74
2022-10-23T11:50:03.505Z,74
2022-10-23T11:51:02.819Z,74
2022-10-23T11:52:00.273Z,74
2022-10-23T11:53:13.683Z,73
2022-10-23T11:54:00.306Z,73
2022-10-23T11:55:00.725Z,73
2022-10-23T11:56:00.326Z,73
2022-10-23T11:57:00.269Z,73
2022-10-23T11:58:00.310Z,73
2022-10-23T11:59:00.266Z,72
2022-10-23T12:00:04.792Z,72
2022-10-23T12:01:00.324Z,72
2022-10-23T12:02:00.515Z,72
2022-10-23T12:03:00.399Z,72
2022-10-23T12:04:00.384Z,71
2022-10-23T12:05:03.362Z,71
2022-10-23T12:06:00.423Z,71
2022-10-23T12:07:00.354Z,71
2022-10-23T12:08:00.429Z,71
2022-10-23T12:09:00.365Z,70
2022-10-23T12:10:03.880Z,70
2022-10-23T12:11:00.368Z,70
2022-10-23T12:12:00.449Z,70
2022-10-23T12:13:00.383Z,70
2022-10-23T12:14:00.550Z,70
2022-10-23T12:15:10.999Z,70
2022-10-23T12:16:01.157Z,70
2022-10-23T12:17:00.417Z,70
2022-10-23T12:18:00.632Z,70
2022-10-23T12:19:00.420Z,69
2022-10-23T12:20:04.820Z,69
2022-10-23T12:21:00.460Z,69
2022-10-23T12:22:00.500Z,69
2022-10-23T12:23:00.458Z,69
2022-10-23T12:24:00.529Z,69
2022-10-23T12:25:03.399Z,69
2022-10-23T12:26:00.545Z,69
2022-10-23T12:27:00.490Z,69
2022-10-23T12:28:00.543Z,69
2022-10-23T12:29:00.528Z,69
2022-10-23T12:30:03.896Z,69
2022-10-23T12:31:00.505Z,69
2022-10-23T12:32:00.587Z,69
2022-10-23T12:33:00.531Z,69
2022-10-23T12:34:00.601Z,69
2022-10-23T12:35:03.501Z,69
2022-10-23T12:36:00.606Z,69
2022-10-23T12:37:00.535Z,68
2022-10-23T12:38:00.619Z,68
2022-10-23T12:39:00.558Z,68
2022-10-23T12:40:04.648Z,68
2022-10-23T12:41:00.579Z,68
2022-10-23T12:42:00.658Z,68
2022-10-23T12:43:00.602Z,68
2022-10-23T12:44:00.671Z,68
2022-10-23T12:45:03.430Z,68
2022-10-23T12:46:00.666Z,68
2022-10-23T12:47:00.612Z,68
2022-10-23T12:48:00.707Z,68
2022-10-23T12:49:00.642Z,68
2022-10-23T12:50:04.002Z,68
2022-10-23T12:51:00.692Z,68
2022-10-23T12:52:00.712Z,68
2022-10-23T12:53:00.656Z,68
2022-10-23T12:54:00.729Z,68
2022-10-23T12:55:03.587Z,68
2022-10-23T12:57:00.707Z,68
2022-10-23T12:58:00.736Z,68
2022-10-23T12:59:00.687Z,68
2022-10-23T13:00:05.717Z,68
2022-10-23T13:01:00.847Z,68
2022-10-23T13:02:00.961Z,68
2022-10-23T13:03:00.740Z,68
2022-10-23T13:04:00.800Z,69
2022-10-23T13:05:03.706Z,69
2022-10-23T13:06:00.849Z,69
2022-10-23T13:07:00.755Z,69
2022-10-23T13:08:00.845Z,69
2022-10-23T13:09:00.784Z,69
2022-10-23T13:10:04.214Z,69
2022-10-23T13:11:00.796Z,69
2022-10-23T13:12:00.867Z,69
2022-10-23T13:13:00.800Z,69
2022-10-23T13:14:00.879Z,69
2022-10-23T13:15:03.888Z,69
2022-10-23T13:16:00.895Z,69
2022-10-23T13:17:00.827Z,69
2022-10-23T13:18:00.911Z,69
2022-10-23T13:19:00.853Z,69
2022-10-23T13:20:04.266Z,69
2022-10-23T13:22:00.924Z,69
2022-10-23T13:23:01.170Z,69
2022-10-23T13:24:00.949Z,69
2022-10-23T13:25:03.776Z,69
2022-10-23T13:26:00.974Z,69
2022-10-23T13:27:00.890Z,69
2022-10-23T13:28:00.974Z,69
2022-10-23T13:29:02.282Z,69
2022-10-23T13:30:06.146Z,69
2022-10-23T13:31:00.919Z,69
2022-10-23T13:32:01.013Z,69
2022-10-23T13:33:00.952Z,69
2022-10-23T13:34:01.013Z,69
2022-10-23T13:35:21.034Z,69
2022-10-23T13:36:01.034Z,69
2022-10-23T13:37:00.970Z,69
2022-10-23T13:38:01.089Z,69
2022-10-23T13:39:00.988Z,69
2022-10-23T13:40:04.244Z,69
2022-10-23T13:41:00.986Z,70
2022-10-23T13:42:01.089Z,70
2022-10-23T13:43:01.010Z,70
2022-10-23T13:44:01.086Z,70
2022-10-23T13:45:04.205Z,70
2022-10-23T13:46:01.169Z,70
2022-10-23T13:47:01.021Z,70
2022-10-23T13:48:01.109Z,70
2022-10-23T13:49:01.029Z,70
2022-10-23T13:50:04.373Z,70
2022-10-23T13:51:01.058Z,70
2022-10-23T13:52:01.112Z,70
2022-10-23T13:53:01.055Z,70
2022-10-23T13:54:01.171Z,70
2022-10-23T13:55:07.242Z,69
2022-10-23T13:56:01.143Z,69
2022-10-23T13:57:01.108Z,69
2022-10-23T13:58:01.168Z,70
2022-10-23T13:59:01.101Z,70
2022-10-23T14:00:05.744Z,70
2022-10-23T14:01:01.259Z,70
2022-10-23T14:02:01.383Z,70
2022-10-23T14:03:01.167Z,70
2022-10-23T14:04:01.229Z,70
2022-10-23T14:05:04.046Z,70
2022-10-23T14:06:00.244Z,70
2022-10-23T14:07:00.202Z,70
2022-10-23T14:08:00.239Z,70
2022-10-23T14:09:00.195Z,70
2022-10-23T14:10:05.623Z,70
2022-10-23T14:11:00.205Z,70
2022-10-23T14:12:00.289Z,70
2022-10-23T14:13:00.231Z,70
2022-10-23T14:14:00.288Z,70
2022-10-23T14:15:03.271Z,70
2022-10-23T14:16:00.284Z,70
2022-10-23T14:17:00.235Z,70
2022-10-23T14:18:04.600Z,70
2022-10-23T14:19:00.281Z,70